Buckner, Illinois
Current Conditions -  °F | °C
As of 11:52 AM on Sunday 21 Dec 2014 (Local Time) from KMWA Reporting Station
Broken Clouds Broken Clouds  
Wind Chill: 39°   Ceiling: 25000
Heat Index: 43°   Visibility: 15mi
Dew Point: 30°   Wind: 6mph
Humidity: 61%   Direction: 70°ENE
Pressure: 30.19"   Gusts: NA
Location:  37.98°N, 89.02°W
Report Text: KMWA 211752Z 07005KT 15SM SCT150 BKN250 06/M01 A3019
Loading
Personal Weather Stations






























Interactive Weather Map New forecast layout! Learn more

10-Day Weather Forecast

Advertisements
Track Severe Weather on mobile